Princeton, Missouri
Current Conditions -  °F | °C
As of 9:53 AM on Saturday 20 Dec 2014 (Local Time) from KLWD Reporting Station
Haze Haze  
Wind Chill: 27°   Ceiling: 400
Heat Index: 32°   Visibility: 1.7mi
Dew Point: 31°   Wind: 5mph
Humidity: 96%   Direction: 170°S
Pressure: 30.17"   Gusts: NA
Location:  40.4°N, 93.58°W
Report Text: KLWD 201553Z AUTO 17004KT 1 3/4SM BR OVC004 00/M01 A3017 RMK AO2 SLP227 I1002 T00001006
Loading
Personal Weather Stations






























Interactive Weather Map New forecast layout! Learn more

10-Day Weather Forecast

Advertisements
Track Severe Weather on mobile